Fairview Valley, Nevada Weather observations

Data are for observation ending at time listed.
 Day   Time    Ave.   Ave.  Ave.  Vector   Max.   Stn.    Total    Solar   Ave.   Ave.    #1       #2
  of    of     Air    Rel.  Wind   Wind    Wind   Baro.  Precip.   Rad.    Soil   Vis.   Cloud   Cloud
Year   Day     Temp.  Hum.  Speed  Dir.    Gust   Pres.                    Temp.          Ceil    Ceil
2016   (PST)    F      %     mph   deg.    mph     mb.     in.     W/m2     F     (km)   k ft.   k ft.
------------------------------------------------------------------------------------------------------
 268   13:50   72.9    21    6.8   354     11.6    879     0.00     687    63.8   -8190.0    0.0  999.0
 268   14:00   72.8    22    2.2    44      7.2    879     0.00     668    64.1   -8190.0    0.0  999.0
 268   14:10   74.3    20    2.8    22      7.4    878     0.00     647    64.5   -8190.0    0.0  999.0
 268   14:20   74.3    18    6.7    23     13.4    878     0.00     626    64.9   -8190.0    0.0  999.0
 268   14:30   73.8    17    6.5     5     12.9    878     0.00     603    65.3   -8190.0    0.0  999.0
 268   14:40   74.5    15    6.1    18     11.8    878     0.00     577    65.6   -8190.0    0.0  999.0
 268   14:50   73.8    14    7.2     2     11.8    878     0.00     552    66.0   -8190.0    0.0  999.0
 268   15:00   74.3    13    3.7    43      7.7    878     0.00     524    66.3   -8190.0    0.0  999.0
 268   15:10   74.6    13    6.4     2     12.4    878     0.00     495    66.7   -8190.0    0.0  999.0
 268   15:20   74.6    12    7.0    10     12.5    878     0.00     465    67.0   -8190.0    0.0  999.0
 268   15:30   74.2    13    7.8    36     11.8    878     0.00     435    67.3   -8190.0    0.0  999.0
 268   15:40   74.2    13    6.4    50     11.1    878     0.00     403    67.6   -8190.0    0.0  999.0
 268   15:50   74.2    14    8.3    34     14.5    878     0.00     371    67.9   -8190.0    0.0  999.0
 268   16:00   74.0    14    6.2    10     10.2    879     0.00     338    68.2   -8190.0    0.0  999.0
 268   16:10   73.7    15    7.5    12     12.1    879     0.00     305    68.5   -8190.0    0.0  999.0
 268   16:20   73.6    13    8.6    18     12.9    879     0.00     274    68.7   -8190.0    0.0  999.0
 268   16:30   73.3    14    8.3     8     11.2    879     0.00     240    68.9   -8190.0    0.0  999.0
 268   16:40   73.0    16    9.6     6     13.6    879     0.00     206    69.1   -8190.0    0.0  999.0
 268   16:50   72.6    18    9.6    13     12.8    879     0.00     175    69.3   -8190.0    0.0  999.0
 268   17:00   72.3    18    9.6    18     13.4    879     0.00     144    69.5   -8190.0    0.0  999.0
 268   17:10   71.8    20    9.2    14     12.1    879     0.00     109    69.7   -8190.0    0.0  999.0
 268   17:20   71.2    20   10.6    10     14.2    879     0.00      71    69.8   -8190.0    0.0  999.0
 268   17:30   70.4    20   10.5    10     13.4    879     0.00      39    69.9   -8190.0    0.0  999.0
 268   17:40   69.4    22    8.8    10     12.1    879     0.00      17    70.0   -8190.0    0.0  999.0
 268   17:50   67.9    23    8.7    14     10.4    879     0.00       5    70.1   -8190.0    0.0  999.0
 268   18:00   66.6    24    8.0     8     10.1    879     0.00       2    70.1   -8190.0    0.0  999.0
 268   18:10   65.4    26    6.6   352      7.7    879     0.00       0    70.1   -8190.0    0.0  999.0
 268   18:20   63.7    29    8.2   344      9.6    880     0.00       0    70.1   -8190.0    0.0  999.0
 268   18:30   63.8    30    8.2   348      9.7    880     0.00       0    70.1   -8190.0    0.0  999.0
 268   18:40   63.5    30    5.6   343      7.0    880     0.00       0    70.0   -8190.0    0.0  999.0
 268   18:50   61.5    32    3.0   275      5.0    880     0.00       0    69.9   -8190.0    0.0  999.0
 268   19:00   60.0    34    2.2   300      4.2    880     0.00       0    69.9   -8190.0    0.0  999.0
 268   19:10   60.2    34    1.8   337      4.5    880     0.00       0    69.8   -8190.0    0.0  999.0
 268   19:20   59.2    34    1.4   145      3.1    880     0.00       0    69.7   -8190.0    0.0  999.0
 268   19:30   58.6    35    6.6   178      9.1    880     0.00       0    69.6   -8190.0    0.0  999.0
 268   19:40   60.3    33    3.4   210      6.8    880     0.00       0    69.5   -8190.0    0.0  999.0
 268   19:50   60.3    33    5.4   172      7.5    880     0.00       0    69.4   -8190.0  999.0  999.0
 268   20:00  999.0   999  999.0   999    999.0    999    999.00     999   999.0   999.0  999.0  999.0
 268   20:10  999.0   999  999.0   999    999.0    999    999.00     999   999.0   999.0  999.0  999.0
 268   20:20  999.0   999  999.0   999    999.0    999    999.00     999   999.0   999.0  999.0  999.0
 268   20:30  999.0   999  999.0   999    999.0    999    999.00     999   999.0   999.0  999.0  999.0
 268   20:40  999.0   999  999.0   999    999.0    999    999.00     999   999.0   999.0  999.0  999.0
 268   20:50   54.7   999    3.3   230      4.6    999    999.00       0   999.0   999.0  999.0  999.0
 268   21:00  999.0   999  999.0   999    999.0    999    999.00     999   999.0   999.0  999.0  999.0
 268   21:10  999.0   999  999.0   999    999.0    999    999.00     999   999.0   999.0  999.0  999.0
 268   21:20  999.0   999  999.0   999    999.0    999    999.00     999   999.0   999.0  999.0  999.0
 268   21:30  999.0   999  999.0   999    999.0    999    999.00     999   999.0   999.0  999.0  999.0
 268   21:40  999.0   999  999.0   999    999.0    999    999.00     999   999.0   999.0  999.0  999.0
 268   21:50  999.0   999    1.8   999    999.0    999    999.00       0   999.0   999.0  999.0  999.0
 268   22:00  999.0   999  999.0   999    999.0    999    999.00     999   999.0   999.0  999.0  999.0
 268   22:10  999.0   999  999.0   999    999.0    999    999.00     999   999.0   999.0  999.0  999.0
 268   22:20  999.0   999  999.0   999    999.0    999    999.00     999   999.0   999.0  999.0  999.0
 268   22:30  999.0   999  999.0   999    999.0    999    999.00     999   999.0   999.0  999.0  999.0
 268   22:40  999.0   999  999.0   999    999.0    999    999.00     999   999.0   999.0  999.0  999.0
 268   22:50  999.0   999  999.0   999    999.0    999    999.00     999   999.0   999.0  999.0  999.0
 268   23:00  999.0   999  999.0   999    999.0    999    999.00     999   999.0   999.0  999.0  999.0
 268   23:10  999.0   999  999.0   999    999.0    999    999.00     999   999.0   999.0  999.0  999.0
 268   23:20  999.0   999  999.0   999    999.0    999    999.00     999   999.0   999.0  999.0  999.0
 268   23:30  999.0   999  999.0   999    999.0    999    999.00     999   999.0   999.0  999.0  999.0
 268   23:40  999.0   999  999.0   999    999.0    999    999.00     999   999.0   999.0  999.0  999.0
 268   23:50  999.0   999  999.0   999    999.0    999    999.00     999   999.0   999.0  999.0  999.0
 269    0:00  999.0   999  999.0   999    999.0    999    999.00     999   999.0   999.0  999.0  999.0
 269    0:10  999.0   999  999.0   999    999.0    999    999.00     999   999.0   999.0  999.0  999.0
 269    0:20  999.0   999  999.0   999    999.0    999    999.00     999   999.0   999.0  999.0  999.0
 269    0:30  999.0   999  999.0   999    999.0    999    999.00     999   999.0   999.0  999.0  999.0
 269    0:40  999.0   999  999.0   999    999.0    999    999.00     999   999.0   999.0  999.0  999.0
 269    0:50  999.0   999  999.0   999    999.0    999    999.00     999   999.0   999.0  999.0  999.0
 269    1:00  999.0   999  999.0   999    999.0    999    999.00     999   999.0   999.0  999.0  999.0
 269    1:10  999.0   999  999.0   999    999.0    999    999.00     999   999.0   999.0  999.0  999.0
 269    1:20  999.0   999  999.0   999    999.0    999    999.00     999   999.0   999.0  999.0  999.0
 269    1:30  999.0   999  999.0   999    999.0    999    999.00     999   999.0   999.0  999.0  999.0
 269    1:40  999.0   999  999.0   999    999.0    999    999.00     999   999.0   999.0  999.0  999.0
 269    1:50  999.0   999  999.0   999    999.0    999    999.00     999   999.0   999.0  999.0  999.0
 269    2:00  999.0   999  999.0   999    999.0    999    999.00     999   999.0   999.0  999.0  999.0
 269    2:10  999.0   999  999.0   999    999.0    999    999.00     999   999.0   999.0  999.0  999.0
 269    2:20  999.0   999  999.0   999    999.0    999    999.00     999   999.0   999.0  999.0  999.0
 269    2:30  999.0   999  999.0   999    999.0    999    999.00     999   999.0   999.0  999.0  999.0
 269    2:40  999.0   999  999.0   999    999.0    999    999.00     999   999.0   999.0  999.0  999.0
 269    2:50  999.0   999  999.0   999    999.0    999    999.00     999   999.0   999.0  999.0  999.0
 269    3:00  999.0   999  999.0   999    999.0    999    999.00     999   999.0   999.0  999.0  999.0
 269    3:10  999.0   999  999.0   999    999.0    999    999.00     999   999.0   999.0  999.0  999.0
 269    3:20  999.0   999  999.0   999    999.0    999    999.00     999   999.0   999.0  999.0  999.0
 269    3:30  999.0   999  999.0   999    999.0    999    999.00     999   999.0   999.0  999.0  999.0
 269    3:40  999.0   999  999.0   999    999.0    999    999.00     999   999.0   999.0  999.0  999.0
 269    3:50  999.0   999  999.0   999    999.0    999    999.00     999   999.0   999.0  999.0  999.0
 269    4:00  999.0   999  999.0   999    999.0    999    999.00     999   999.0   999.0  999.0  999.0
 269    4:10  999.0   999  999.0   999    999.0    999    999.00     999   999.0   999.0  999.0  999.0
 269    4:20  999.0   999  999.0   999    999.0    999    999.00     999   999.0   999.0  999.0  999.0
 269    4:30  999.0   999  999.0   999    999.0    999    999.00     999   999.0   999.0  999.0  999.0
 269    4:40  999.0   999  999.0   999    999.0    999    999.00     999   999.0   999.0  999.0  999.0
 269    4:50  999.0   999  999.0   999    999.0    999    999.00     999   999.0   999.0  999.0  999.0
 269    5:00  999.0   999  999.0   999    999.0    999    999.00     999   999.0   999.0  999.0  999.0
 269    5:10  999.0   999  999.0   999    999.0    999    999.00     999   999.0   999.0  999.0  999.0
 269    5:20  999.0   999  999.0   999    999.0    999    999.00     999   999.0   999.0  999.0  999.0
 269    5:30  999.0   999  999.0   999    999.0    999    999.00     999   999.0   999.0  999.0  999.0
 269    5:40  999.0   999  999.0   999    999.0    999    999.00     999   999.0   999.0  999.0  999.0
 269    5:50   38.7    68    2.9   184      4.5    883     0.00       5    61.4   -8190.0    0.0  999.0
 269    6:00   39.4    66    4.0   214      6.4    883     0.00       9    61.3   -8190.0    0.0  999.0
 269    6:10   38.9    64    4.2   218      6.4    883     0.00      36    61.2   -8190.0    0.0  999.0
 269    6:20   39.7    61    2.9   207      4.0    883     0.00      66    61.0   -8190.0    0.0  999.0
 269    6:30   41.1    59    1.6   196      4.0    883     0.00     104    60.9   -8190.0    0.0  999.0
 269    6:40   43.2    56    1.0   173      3.7    883     0.00     140    60.7   -8190.0    0.0  999.0
 269    6:50   43.6    56    2.3   308      3.7    884     0.00     171    60.6   -8190.0    0.0  999.0
 269    7:00   44.3    56    2.0   291      3.8    884     0.00     202    60.5   -8190.0    0.0  999.0
 269    7:10   46.6    53    2.1   267      4.2    884     0.00     234    60.4   -8190.0    0.0  999.0
 269    7:20   48.8    50    3.1   218      4.0    884     0.00     265    60.3   -8190.0    0.0  999.0
 269    7:30   50.5    46    2.3   210      3.8    884     0.00     297    60.2   -8190.0    0.0  999.0
 269    7:40   52.1    42    3.0   202      4.0    884     0.00     330    60.2   -8190.0    0.0  999.0
 269    7:50   53.9    39    2.9   187      4.2    884     0.00     361    60.1   -8190.0    0.0  999.0
 269    8:00   55.7    36    3.3   201      4.5    884     0.00     392    60.0   -8190.0    0.0  999.0
 269    8:10   56.7    34    2.6   222      5.0    884     0.00     423    59.9   -8190.0    0.0  999.0
 269    8:20   58.1    32    2.3   244      4.2    884     0.00     452    59.9   -8190.0    0.0  999.0
 269    8:30   60.0    29    1.6   243      3.4    884     0.00     481    59.8   -8190.0    0.0  999.0
 269    8:40   61.2    28    1.9   359      4.4    884     0.00     509    59.8   -8190.0    0.0  999.0
 269    8:50   61.9    27    3.2    21      5.6    884     0.00     537    59.8   -8190.0    0.0  999.0
 269    9:00   63.4    26    5.6    18      8.8    884     0.00     563    59.8   -8190.0    0.0  999.0
 269    9:10   64.7    24    7.6    16     10.5    884     0.00     589    59.8   -8190.0    0.0  999.0
 269    9:20   65.8    22    9.5     8     14.1    884     0.00     613    59.8   -8190.0    0.0  999.0
 269    9:30   66.1    21    9.9    26     14.2    884     0.00     636    59.8   -8190.0    0.0  999.0
 269    9:40   67.0    20   10.6    25     15.6    884     0.00     658    59.8   -8190.0    0.0  999.0
 269    9:50   67.4    19   10.9    31     16.3    883     0.00     679    59.8   -8190.0    0.0  999.0
 269   10:00   67.9    18   12.9    23     19.8    883     0.00     698    59.9   -8190.0    0.0  999.0
 269   10:10   68.7    17   14.5    21     21.1    883     0.00     713    59.9   -8190.0    0.0  999.0
 269   10:20   69.0    16   16.5    22     21.6    883     0.00     732    59.9   -8190.0    0.0  999.0
 269   10:30   70.0    14   17.8    20     23.7    883     0.00     746    60.0   -8190.0    0.0  999.0
 269   10:40   70.6    14   17.9    17     24.0    883     0.00     758    60.0   -8190.0    0.0  999.0
 269   10:50   70.8    13   18.5    14     25.0    883     0.00     771    60.1   -8190.0    0.0  999.0
 269   11:00   71.0    12   19.7    18     26.1    883     0.00     782    60.2   -8190.0    0.0  999.0
 269   11:10   71.9    12   19.1    15     24.9    882     0.00     790    60.2   -8190.0    0.0  999.0
 269   11:20   72.1    11   20.1    11     25.5    882     0.00     797    60.3   -8190.0    0.0  999.0
 269   11:30   72.9    11   18.1    12     25.5    882     0.00     801    60.4   -8190.0    0.0  999.0
 269   11:40   73.0    11   19.8     9     26.9    882     0.00     803    60.5   -8190.0    0.0  999.0
 269   11:50   73.1    11   19.9    17     26.6    882     0.00     805    60.7   -8190.0    0.0  999.0
 269   12:00   73.8    12   17.4    19     24.4    882     0.00     804    60.9   -8190.0    0.0  999.0
 269   12:10   74.3    11   17.1    14     22.1    882     0.00     801    61.1   -8190.0    0.0  999.0
 269   12:20   74.6    11   17.2    14     22.2    882     0.00     795    61.3   -8190.0    0.0  999.0
 269   12:30   75.0    11   18.2    12     24.8    882     0.00     777    61.5   -8190.0    0.0  999.0
 269   12:40   75.2    11   19.0    16     25.5    881     0.00     785    61.7   -8190.0    0.0  999.0
 269   12:50   75.6    11   16.8    22     21.7    881     0.00     764    62.0   -8190.0    0.0  999.0
 269   13:00   75.7    11   16.4    16     22.7    881     0.00     711    62.3   -8190.0    0.0  999.0
 269   13:10   76.2    10   16.2    15     23.7    881     0.00     745    62.6   -8190.0    0.0  999.0
 269   13:20   76.9    10   14.8    16     20.1    881     0.00     726    63.0   -8190.0    0.0  999.0
 269   13:30   77.3    10   14.4    15     18.9    881     0.00     716    63.3   -8190.0    0.0  999.0
 269   13:40   78.0     9   13.4     2     18.2    881     0.00     699    63.6   -8190.0    0.0  999.0

Return to Fairview Valley graphs page.


Western Regional Climate Center,wrcc@dri.edu